Time;durP1;ratioP1;P1;durP2;ratioP2;P2;SDS_P1;SDS_P2;PMS_P1;PMS_P2;Temp;Humidity;BMP_temperature;BMP_pressure;BME280_temperature;BME280_humidity;BME280_pressure;Samples;Min_cycle;Max_cycle;Signal;HPM_P1;HPM_P2
2021/07/27 00:01:46;;;;;;;7.20;3.80;;;19.30;99.90;;;;;;6215361;23;20183;-76
2021/07/27 00:04:12;;;;;;;6.35;3.92;;;19.50;99.90;;;;;;6215051;23;20182;-76
2021/07/27 00:06:39;;;;;;;8.45;3.60;;;19.50;99.90;;;;;;6214956;23;20180;-76
2021/07/27 00:09:07;;;;;;;6.63;4.05;;;19.50;99.90;;;;;;6215214;23;20197;-77
2021/07/27 00:11:34;;;;;;;8.80;4.50;;;19.40;99.90;;;;;;6215674;23;20267;-75
2021/07/27 00:14:01;;;;;;;7.43;4.22;;;19.20;99.90;;;;;;6215268;23;20180;-77
2021/07/27 00:16:28;;;;;;;8.73;3.70;;;19.10;99.90;;;;;;6215783;23;20176;-77
2021/07/27 00:18:54;;;;;;;7.68;3.80;;;19.10;99.90;;;;;;6215133;23;20196;-76
2021/07/27 00:21:21;;;;;;;9.27;3.90;;;19.00;99.90;;;;;;6215121;23;20208;-75
2021/07/27 00:23:48;;;;;;;5.77;3.60;;;18.80;99.90;;;;;;6215676;23;20182;-76
2021/07/27 00:26:16;;;;;;;8.53;4.10;;;18.80;99.90;;;;;;6214785;23;20183;-75
2021/07/27 00:28:43;;;;;;;8.17;3.70;;;18.70;99.90;;;;;;6215360;23;20202;-76
2021/07/27 00:31:16;;;;;;;7.87;4.10;;;18.60;99.90;;;;;;6215127;23;20204;-76
2021/07/27 00:33:43;;;;;;;8.80;4.23;;;18.50;99.90;;;;;;6214196;23;20661;-75
2021/07/27 00:36:10;;;;;;;7.03;3.90;;;18.40;99.90;;;;;;6214238;23;20272;-76
2021/07/27 00:38:37;;;;;;;7.80;4.20;;;18.30;99.90;;;;;;6214622;23;20197;-76
2021/07/27 00:41:04;;;;;;;8.47;4.10;;;18.30;99.90;;;;;;6215115;23;20230;-76
2021/07/27 00:43:32;;;;;;;9.00;4.60;;;18.30;99.90;;;;;;6215100;23;20176;-76
2021/07/27 00:46:00;;;;;;;10.47;4.13;;;18.20;99.90;;;;;;6216489;23;20183;-76
2021/07/27 00:48:27;;;;;;;9.17;4.27;;;18.20;99.90;;;;;;6216665;23;20196;-76
2021/07/27 00:50:53;;;;;;;8.50;4.57;;;18.20;99.90;;;;;;6216745;23;20180;-76
2021/07/27 00:53:21;;;;;;;7.43;4.33;;;18.20;99.90;;;;;;6216733;23;20176;-76
2021/07/27 00:55:48;;;;;;;8.47;4.57;;;18.30;99.90;;;;;;6216826;23;20183;-76
2021/07/27 00:58:15;;;;;;;12.30;4.80;;;18.20;99.90;;;;;;6216738;23;20204;-75
2021/07/27 01:00:43;;;;;;;11.67;5.70;;;18.20;99.90;;;;;;6216269;23;20214;-76
2021/07/27 01:03:10;;;;;;;9.47;4.90;;;18.30;99.90;;;;;;6216581;23;20184;-76
2021/07/27 01:05:37;;;;;;;10.30;5.43;;;18.30;99.90;;;;;;6216318;23;20191;-76
2021/07/27 01:08:05;;;;;;;10.53;5.17;;;18.20;99.90;;;;;;6215371;23;20196;-76
2021/07/27 01:10:32;;;;;;;7.87;4.67;;;18.20;99.90;;;;;;6216245;23;20181;-76
2021/07/27 01:12:59;;;;;;;9.40;4.90;;;18.10;99.90;;;;;;6216401;23;20259;-76
2021/07/27 01:15:26;;;;;;;12.63;5.90;;;18.10;99.90;;;;;;6216051;23;20211;-76
2021/07/27 01:18:01;;;;;;;8.37;4.97;;;18.00;99.90;;;;;;6216264;23;20507;-76
2021/07/27 01:20:34;;;;;;;10.07;5.47;;;18.00;99.90;;;;;;6216755;23;20204;-75
2021/07/27 01:39:38;;;;;;;10.83;6.30;;;17.90;99.90;;;;;;6204847;23;20508;-76
2021/07/27 01:42:07;;;;;;;9.93;5.50;;;18.00;99.90;;;;;;6216264;23;20239;-76
2021/07/27 01:44:35;;;;;;;10.40;5.37;;;18.00;99.90;;;;;;6215321;23;20662;-76
2021/07/27 01:47:02;;;;;;;10.13;5.00;;;18.00;99.90;;;;;;6215178;23;20208;-76
2021/07/27 01:49:28;;;;;;;10.13;5.30;;;17.90;99.90;;;;;;6216130;23;20176;-76
2021/07/27 01:51:55;;;;;;;9.43;5.00;;;17.90;99.90;;;;;;6216508;23;20176;-76
2021/07/27 01:54:30;;;;;;;14.73;7.80;;;18.00;99.90;;;;;;6216586;23;20185;-76
2021/07/27 01:56:58;;;;;;;9.60;5.40;;;18.00;99.90;;;;;;6215338;23;20182;-76
2021/07/27 01:59:25;;;;;;;10.50;5.47;;;17.90;99.90;;;;;;6215858;23;20188;-76
2021/07/27 02:01:51;;;;;;;11.77;5.57;;;17.90;99.90;;;;;;6215781;23;20218;-76
2021/07/27 02:04:18;;;;;;;11.37;5.50;;;17.90;99.90;;;;;;6215981;23;20259;-76
2021/07/27 02:06:45;;;;;;;8.47;4.53;;;17.90;99.90;;;;;;6216214;23;20186;-76
2021/07/27 02:09:14;;;;;;;10.33;5.57;;;17.90;99.90;;;;;;6215962;23;20196;-76
2021/07/27 02:11:45;;;;;;;10.83;5.37;;;17.90;99.90;;;;;;6216273;23;20184;-76
2021/07/27 02:14:15;;;;;;;9.73;5.70;;;17.90;99.90;;;;;;6216140;23;20177;-76
2021/07/27 02:16:42;;;;;;;8.83;4.90;;;17.90;99.90;;;;;;6216210;23;20215;-75
2021/07/27 02:19:09;;;;;;;10.23;5.30;;;17.90;99.90;;;;;;6215898;23;20219;-75
2021/07/27 02:21:36;;;;;;;14.30;5.63;;;17.90;99.90;;;;;;6216278;23;20208;-75
2021/07/27 02:24:03;;;;;;;9.50;4.77;;;17.90;99.90;;;;;;6215829;23;20176;-75
2021/07/27 02:26:30;;;;;;;8.63;5.33;;;17.80;99.90;;;;;;6216107;23;20176;-75
2021/07/27 02:28:57;;;;;;;8.50;5.13;;;17.80;99.90;;;;;;6215920;23;20204;-74
2021/07/27 02:31:31;;;;;;;9.87;5.03;;;17.80;99.90;;;;;;6215690;23;20259;-74
2021/07/27 02:33:59;;;;;;;11.73;5.43;;;17.80;99.90;;;;;;6215609;23;20693;-75
2021/07/27 02:36:25;;;;;;;9.77;5.60;;;17.80;99.90;;;;;;6215595;23;20195;-75
2021/07/27 02:38:52;;;;;;;8.43;5.13;;;17.90;99.90;;;;;;6216030;23;20287;-75
2021/07/27 02:41:32;;;;;;;10.60;5.57;;;17.90;99.90;;;;;;6216128;23;20208;-74
2021/07/27 02:43:59;;;;;;;9.47;5.30;;;17.80;99.90;;;;;;6215746;23;20180;-75
2021/07/27 02:46:28;;;;;;;10.97;5.80;;;17.80;99.90;;;;;;6214872;23;20198;-75
2021/07/27 02:49:01;;;;;;;7.80;4.87;;;17.80;99.90;;;;;;6215081;23;20673;-74
2021/07/27 02:51:28;;;;;;;10.00;5.30;;;17.80;99.90;;;;;;6215856;23;20185;-75
2021/07/27 02:53:54;;;;;;;11.73;5.73;;;17.80;99.90;;;;;;6215317;23;20496;-75
2021/07/27 02:56:21;;;;;;;11.33;5.23;;;17.90;99.90;;;;;;6214873;23;20185;-75
2021/07/27 02:58:48;;;;;;;11.30;5.37;;;17.80;99.90;;;;;;6215501;23;20218;-75
2021/07/27 03:01:15;;;;;;;10.87;6.03;;;17.60;99.90;;;;;;6215380;23;20678;-74
2021/07/27 03:03:43;;;;;;;11.23;5.87;;;17.60;99.90;;;;;;6215041;23;20631;-75
2021/07/27 03:06:12;;;;;;;9.23;5.07;;;17.70;99.90;;;;;;6215368;23;20520;-75
2021/07/27 03:08:51;;;;;;;11.60;5.63;;;17.70;99.90;;;;;;6215183;23;20231;-75
2021/07/27 03:11:19;;;;;;;9.73;5.70;;;17.80;99.90;;;;;;6215033;23;20187;-75
2021/07/27 03:13:46;;;;;;;10.33;5.20;;;17.80;99.90;;;;;;6215445;23;20176;-74
2021/07/27 03:16:17;;;;;;;12.67;5.50;;;17.80;99.90;;;;;;6215432;23;20181;-75
2021/07/27 03:18:46;;;;;;;13.37;5.07;;;17.80;99.90;;;;;;6214862;23;20219;-75
2021/07/27 03:21:13;;;;;;;8.97;4.97;;;17.90;99.90;;;;;;6214506;23;20204;-74
2021/07/27 03:23:39;;;;;;;11.23;5.53;;;17.90;99.90;;;;;;6215506;23;20182;-74
2021/07/27 03:26:06;;;;;;;10.87;5.17;;;17.90;99.90;;;;;;6215278;23;20180;-74
2021/07/27 03:28:33;;;;;;;10.17;5.13;;;17.70;99.90;;;;;;6215747;23;20201;-75
2021/07/27 03:31:00;;;;;;;13.57;5.00;;;17.80;99.90;;;;;;6215358;23;20259;-75
2021/07/27 03:33:27;;;;;;;9.70;5.83;;;17.60;99.90;;;;;;6215353;23;20177;-75
2021/07/27 03:35:55;;;;;;;9.90;4.80;;;17.70;99.90;;;;;;6215546;23;20176;-75
2021/07/27 03:38:21;;;;;;;9.20;4.70;;;17.60;99.90;;;;;;6215273;23;20200;-75
2021/07/27 03:40:48;;;;;;;9.77;5.43;;;17.60;99.90;;;;;;6215492;23;20204;-75
2021/07/27 03:43:15;;;;;;;9.73;4.10;;;17.50;99.90;;;;;;6215371;23;20176;-75
2021/07/27 03:45:42;;;;;;;10.27;5.50;;;17.60;99.90;;;;;;6215278;23;20186;-75
2021/07/27 03:48:08;;;;;;;7.77;4.53;;;17.50;99.90;;;;;;6215005;23;20196;-75
2021/07/27 03:50:35;;;;;;;9.27;4.77;;;17.50;99.90;;;;;;6215327;23;20177;-74
2021/07/27 03:53:03;;;;;;;9.37;5.10;;;17.40;99.90;;;;;;6215659;23;20184;-75
2021/07/27 03:55:30;;;;;;;7.97;4.53;;;17.40;99.90;;;;;;6215408;23;20176;-74
2021/07/27 03:57:57;;;;;;;9.23;4.73;;;17.30;99.90;;;;;;6215074;23;20693;-74
2021/07/27 04:00:24;;;;;;;7.23;3.93;;;17.40;99.90;;;;;;6214995;23;20184;-77
2021/07/27 04:02:50;;;;;;;9.53;5.10;;;17.40;99.90;;;;;;6215152;23;20215;-75
2021/07/27 04:05:17;;;;;;;8.07;3.83;;;17.40;99.90;;;;;;6215243;23;20177;-75
2021/07/27 04:07:44;;;;;;;6.90;3.80;;;17.40;99.90;;;;;;6215023;23;20225;-77
2021/07/27 04:10:13;;;;;;;10.23;4.73;;;17.40;99.90;;;;;;6215510;23;20176;-77
2021/07/27 04:12:39;;;;;;;10.17;4.73;;;17.50;99.90;;;;;;6214863;23;20177;-74
2021/07/27 04:15:08;;;;;;;11.07;4.73;;;17.60;99.90;;;;;;6215124;23;20176;-75
2021/07/27 04:17:34;;;;;;;10.47;4.30;;;17.60;99.90;;;;;;6215002;23;20204;-74
2021/07/27 04:20:01;;;;;;;11.57;4.90;;;17.70;99.90;;;;;;6215593;23;20180;-74
2021/07/27 04:22:28;;;;;;;9.33;4.60;;;17.70;99.90;;;;;;6217259;23;20215;-75
2021/07/27 04:24:57;;;;;;;8.37;4.60;;;17.70;99.90;;;;;;6217271;23;20176;-74
2021/07/27 04:27:25;;;;;;;6.90;3.87;;;17.70;99.90;;;;;;6217440;23;20197;-75
2021/07/27 04:29:52;;;;;;;10.23;4.67;;;17.80;99.90;;;;;;6217148;23;20180;-77
2021/07/27 04:32:18;;;;;;;9.23;4.70;;;17.80;99.90;;;;;;6217159;23;20181;-75
2021/07/27 04:34:45;;;;;;;8.27;4.07;;;17.70;99.90;;;;;;6217167;23;20499;-75
2021/07/27 04:37:12;;;;;;;11.07;4.60;;;17.80;99.90;;;;;;6216454;23;20623;-75
2021/07/27 04:39:40;;;;;;;8.43;4.20;;;17.80;99.90;;;;;;6217294;23;20176;-75
2021/07/27 04:42:07;;;;;;;9.87;4.17;;;17.90;99.90;;;;;;6216515;23;20204;-74
2021/07/27 04:44:35;;;;;;;7.97;4.20;;;17.90;99.90;;;;;;6216498;23;20624;-74
2021/07/27 04:47:04;;;;;;;7.93;3.90;;;18.10;99.90;;;;;;6216935;23;20177;-74
2021/07/27 04:49:30;;;;;;;6.90;4.40;;;18.20;99.90;;;;;;6217064;23;20211;-74
2021/07/27 04:51:58;;;;;;;6.00;3.53;;;18.40;99.90;;;;;;6216890;23;20183;-75
2021/07/27 04:54:30;;;;;;;5.23;3.30;;;18.40;99.90;;;;;;6216241;23;20183;-75
2021/07/27 04:56:56;;;;;;;8.00;4.40;;;18.50;99.90;;;;;;6216634;23;20246;-75
2021/07/27 04:59:23;;;;;;;9.53;5.13;;;18.60;99.90;;;;;;6216583;23;20183;-75
2021/07/27 05:01:51;;;;;;;7.80;4.97;;;18.60;99.90;;;;;;6216938;23;20208;-75
2021/07/27 05:04:18;;;;;;;7.40;4.10;;;18.70;99.90;;;;;;6216619;23;20183;-75
2021/07/27 05:06:45;;;;;;;7.47;4.10;;;18.90;99.90;;;;;;6216676;23;20180;-76
2021/07/27 05:09:11;;;;;;;6.27;3.73;;;18.80;99.90;;;;;;6216587;23;20197;-75
2021/07/27 05:11:38;;;;;;;8.03;4.20;;;18.80;99.90;;;;;;6216873;23;20180;-74
2021/07/27 05:14:07;;;;;;;9.13;3.93;;;18.80;99.90;;;;;;6216985;23;20199;-75
2021/07/27 05:16:34;;;;;;;8.30;4.17;;;18.80;99.90;;;;;;6215921;23;20186;-75
2021/07/27 05:19:27;;;;;;;7.85;3.88;;;18.60;99.90;;;;;;6216141;23;20196;-75
2021/07/27 05:21:54;;;;;;;9.23;3.77;;;18.70;99.90;;;;;;6215190;23;20208;-75
2021/07/27 05:24:22;;;;;;;5.57;3.70;;;18.80;99.90;;;;;;6216351;23;20267;-74
2021/07/27 05:26:49;;;;;;;9.77;3.88;;;18.80;99.90;;;;;;6216783;23;20180;-75
2021/07/27 05:29:17;;;;;;;7.87;3.53;;;19.00;99.90;;;;;;6216763;23;20196;-75
2021/07/27 05:31:44;;;;;;;7.70;4.28;;;19.10;99.90;;;;;;6216699;23;20184;-75
2021/07/27 05:34:11;;;;;;;7.20;4.07;;;19.30;99.90;;;;;;6216939;23;20181;-74
2021/07/27 05:36:39;;;;;;;7.05;4.50;;;19.20;99.90;;;;;;6217091;23;20176;-75
2021/07/27 05:39:06;;;;;;;6.75;3.95;;;19.30;99.90;;;;;;6216894;23;20207;-75
2021/07/27 05:41:32;;;;;;;6.70;3.65;;;19.40;99.90;;;;;;6216009;23;20207;-75
2021/07/27 05:43:59;;;;;;;6.57;3.92;;;19.50;99.90;;;;;;6216244;23;20181;-75
2021/07/27 05:46:26;;;;;;;8.40;3.90;;;19.60;99.90;;;;;;6216576;23;20180;-75
2021/07/27 05:48:53;;;;;;;7.15;3.85;;;19.60;99.90;;;;;;6216614;23;20203;-75
2021/07/27 05:51:21;;;;;;;8.45;3.75;;;19.70;99.90;;;;;;6216709;23;20267;-75
2021/07/27 05:53:49;;;;;;;7.40;4.00;;;19.70;99.90;;;;;;6215758;23;20176;-75
2021/07/27 05:56:16;;;;;;;6.65;3.75;;;19.60;99.90;;;;;;6215808;23;20177;-75
2021/07/27 05:58:42;;;;;;;6.70;4.25;;;19.70;99.90;;;;;;6216219;23;20196;-75
2021/07/27 06:01:09;;;;;;;6.50;4.00;;;19.80;99.90;;;;;;6216446;23;20199;-75
2021/07/27 06:03:36;;;;;;;6.50;3.70;;;19.90;99.90;;;;;;6216357;23;20183;-76
2021/07/27 06:06:03;;;;;;;5.50;3.40;;;20.00;99.90;;;;;;6215685;23;20623;-75
2021/07/27 06:08:29;;;;;;;5.57;3.67;;;20.00;99.90;;;;;;6215336;23;20197;-76
2021/07/27 06:10:57;;;;;;;9.02;3.95;;;20.20;99.90;;;;;;6216276;23;20184;-76
2021/07/27 06:13:24;;;;;;;4.75;3.00;;;20.30;99.90;;;;;;6216463;23;20190;-76
2021/07/27 06:15:51;;;;;;;8.40;3.40;;;20.40;99.90;;;;;;6215028;23;20176;-74
2021/07/27 06:18:18;;;;;;;5.95;3.53;;;20.40;99.90;;;;;;6215470;23;20226;-75
2021/07/27 06:20:44;;;;;;;7.03;3.92;;;20.40;99.90;;;;;;6214905;23;20184;-75
2021/07/27 06:23:11;;;;;;;6.72;3.88;;;20.40;99.90;;;;;;6215276;23;20214;-75
2021/07/27 06:25:38;;;;;;;5.80;3.63;;;20.20;99.90;;;;;;6216105;23;20176;-74
2021/07/27 06:28:06;;;;;;;10.13;4.43;;;20.10;99.90;;;;;;6215953;23;20202;-75
2021/07/27 06:30:33;;;;;;;10.88;3.85;;;20.20;99.90;;;;;;6215293;23;20176;-75
2021/07/27 06:33:00;;;;;;;6.70;3.70;;;20.30;99.90;;;;;;6215773;23;20184;-75
2021/07/27 06:35:27;;;;;;;6.78;4.18;;;20.60;99.90;;;;;;6215410;23;20639;-74
2021/07/27 06:37:54;;;;;;;7.18;3.88;;;20.80;99.90;;;;;;6215766;23;20524;-75
2021/07/27 06:40:21;;;;;;;5.95;3.75;;;20.90;99.90;;;;;;6216196;23;20180;-75
2021/07/27 06:42:48;;;;;;;7.55;3.88;;;21.20;99.90;;;;;;6214989;23;20531;-75
2021/07/27 06:45:17;;;;;;;8.85;4.20;;;21.50;99.90;;;;;;6215731;23;20643;-75
2021/07/27 06:47:44;;;;;;;6.38;3.33;;;21.70;99.90;;;;;;6215572;23;20769;-75
2021/07/27 06:50:11;;;;;;;6.85;3.78;;;21.90;99.90;;;;;;6215866;23;20198;-75
2021/07/27 06:52:38;;;;;;;11.52;3.75;;;22.10;99.90;;;;;;6215644;23;20177;-76
2021/07/27 06:55:06;;;;;;;8.40;4.00;;;22.40;99.90;;;;;;6215678;23;20445;-75
2021/07/27 06:57:33;;;;;;;8.63;3.60;;;22.40;99.90;;;;;;6215893;23;20251;-75
2021/07/27 06:59:59;;;;;;;9.02;3.85;;;22.60;99.90;;;;;;6215522;23;20227;-75
2021/07/27 07:02:30;;;;;;;8.38;4.15;;;23.40;99.90;;;;;;6215815;23;20530;-75
2021/07/27 07:04:57;;;;;;;5.70;3.20;;;24.30;99.90;;;;;;6215294;23;20646;-75
2021/07/27 07:07:24;;;;;;;5.70;3.22;;;25.00;99.90;;;;;;6215606;23;20202;-76
2021/07/27 07:09:50;;;;;;;4.80;2.95;;;25.90;99.90;;;;;;6216152;23;20177;-76
2021/07/27 07:12:17;;;;;;;5.22;3.45;;;26.70;99.90;;;;;;6215916;23;20191;-75
2021/07/27 07:14:44;;;;;;;5.55;3.30;;;26.70;99.90;;;;;;6214954;23;20187;-77
2021/07/27 07:17:12;;;;;;;7.30;3.83;;;27.00;99.90;;;;;;6214660;23;20186;-75
2021/07/27 07:19:40;;;;;;;5.97;3.25;;;26.80;99.90;;;;;;6215752;23;20180;-75
2021/07/27 07:22:08;;;;;;;5.28;3.80;;;26.70;99.90;;;;;;6215175;23;20203;-76
2021/07/27 07:24:35;;;;;;;6.00;4.22;;;26.40;99.90;;;;;;6215779;23;20187;-76
2021/07/27 07:27:02;;;;;;;5.90;3.22;;;26.00;99.90;;;;;;6215895;23;20176;-76
2021/07/27 07:29:29;;;;;;;5.82;3.35;;;26.10;99.90;;;;;;6215785;23;20222;-75
2021/07/27 07:31:56;;;;;;;6.95;3.67;;;25.90;99.90;;;;;;6216399;23;20267;-76
2021/07/27 07:34:23;;;;;;;5.13;3.65;;;25.40;99.90;;;;;;6216098;23;20177;-76
2021/07/27 07:36:51;;;;;;;6.00;3.75;;;24.80;99.90;;;;;;6215589;23;20182;-75
2021/07/27 07:39:18;;;;;;;7.38;4.13;;;24.40;99.90;;;;;;6216127;23;20525;-75
2021/07/27 07:41:45;;;;;;;7.78;3.97;;;24.20;99.90;;;;;;6215455;23;20649;-76
2021/07/27 07:44:12;;;;;;;6.22;4.25;;;24.40;99.90;;;;;;6215369;23;20646;-75
2021/07/27 07:46:38;;;;;;;5.88;3.78;;;24.60;99.90;;;;;;6216039;23;20183;-76
2021/07/27 07:49:06;;;;;;;8.57;4.13;;;24.80;99.90;;;;;;6215625;23;20203;-76
2021/07/27 07:51:33;;;;;;;6.60;3.95;;;24.90;99.90;;;;;;6215595;23;20227;-77
2021/07/27 07:54:02;;;;;;;8.00;3.95;;;25.30;99.90;;;;;;6215290;23;20180;-76
2021/07/27 07:56:28;;;;;;;6.93;4.32;;;26.00;99.90;;;;;;6217597;23;20177;-75
2021/07/27 07:58:55;;;;;;;7.90;4.53;;;26.00;99.90;;;;;;6217116;23;20209;-77
2021/07/27 08:01:22;;;;;;;5.80;3.55;;;25.90;99.90;;;;;;6217611;23;20180;-76
2021/07/27 08:03:49;;;;;;;6.82;4.20;;;26.10;99.90;;;;;;6217208;23;20263;-76
2021/07/27 08:06:15;;;;;;;10.82;3.75;;;26.10;99.90;;;;;;6217405;23;20186;-76
2021/07/27 08:08:42;;;;;;;7.60;4.03;;;26.00;99.90;;;;;;6217617;23;20196;-76
2021/07/27 08:11:11;;;;;;;8.43;4.32;;;25.60;99.90;;;;;;6217596;23;20182;-76
2021/07/27 08:13:39;;;;;;;7.85;4.78;;;25.40;99.90;;;;;;6217336;23;20177;-76
2021/07/27 08:16:08;;;;;;;6.78;3.70;;;25.00;99.90;;;;;;6217232;23;20259;-75
2021/07/27 08:18:35;;;;;;;8.55;4.78;;;24.60;99.90;;;;;;6216997;23;20196;-75
2021/07/27 08:21:02;;;;;;;7.63;4.38;;;24.60;99.90;;;;;;6218149;23;20191;-75
2021/07/27 08:23:28;;;;;;;6.82;4.13;;;24.40;99.90;;;;;;6216556;23;20712;-75
2021/07/27 08:25:55;;;;;;;7.65;4.60;;;24.00;99.90;;;;;;6217154;23;20176;-75
2021/07/27 08:28:23;;;;;;;10.18;4.40;;;23.90;99.90;;;;;;6217367;23;20202;-76
2021/07/27 08:30:51;;;;;;;8.63;4.40;;;23.70;99.90;;;;;;6217161;23;20499;-75
2021/07/27 08:33:18;;;;;;;11.80;5.22;;;23.60;99.90;;;;;;6217453;23;20223;-76
2021/07/27 08:35:44;;;;;;;8.35;4.60;;;23.20;99.90;;;;;;6216712;23;20658;-75
2021/07/27 08:38:11;;;;;;;7.00;4.78;;;23.20;99.90;;;;;;6217013;23;20702;-75
2021/07/27 08:40:39;;;;;;;8.05;4.78;;;22.90;99.90;;;;;;6217295;23;20182;-75
2021/07/27 08:43:09;;;;;;;8.63;5.07;;;22.80;99.90;;;;;;6217395;23;20219;-75
2021/07/27 08:45:37;;;;;;;9.60;4.95;;;22.70;99.90;;;;;;6217265;23;20180;-76
2021/07/27 08:48:05;;;;;;;8.40;4.38;;;22.50;99.90;;;;;;6217091;23;20197;-76
2021/07/27 08:50:32;;;;;;;6.80;4.82;;;22.40;99.90;;;;;;6216946;23;20184;-76
2021/07/27 08:53:00;;;;;;;10.73;5.25;;;22.10;99.90;;;;;;6216737;23;20176;-76
2021/07/27 08:55:27;;;;;;;9.90;5.13;;;22.00;99.90;;;;;;6216860;23;20187;-75
2021/07/27 08:57:56;;;;;;;10.82;5.28;;;22.10;99.90;;;;;;6217451;23;20516;-75
2021/07/27 09:00:23;;;;;;;7.32;4.75;;;22.10;99.90;;;;;;6216993;23;20228;-77
2021/07/27 09:02:51;;;;;;;7.53;4.60;;;22.10;99.90;;;;;;6217642;23;20227;-76
2021/07/27 09:05:18;;;;;;;6.10;4.28;;;22.00;99.90;;;;;;6216585;23;20631;-75
2021/07/27 09:07:45;;;;;;;6.95;4.50;;;22.10;99.90;;;;;;6216904;23;20520;-76
2021/07/27 09:10:13;;;;;;;8.27;4.40;;;22.10;99.90;;;;;;6217310;23;20187;-76
2021/07/27 09:12:55;;;;;;;7.63;4.43;;;22.30;99.90;;;;;;6217070;23;20181;-76
2021/07/27 09:15:23;;;;;;;7.63;4.22;;;22.20;99.90;;;;;;6217018;23;20176;-76
2021/07/27 09:17:59;;;;;;;7.07;4.97;;;22.20;99.90;;;;;;6216740;23;20197;-76
2021/07/27 09:20:34;;;;;;;6.20;4.38;;;22.20;99.90;;;;;;6216539;23;20194;-76
2021/07/27 09:23:01;;;;;;;8.02;4.75;;;22.10;99.90;;;;;;6216173;23;20659;-76
2021/07/27 09:25:31;;;;;;;6.05;4.50;;;22.20;99.90;;;;;;6217141;23;20202;-76
2021/07/27 09:28:07;;;;;;;7.32;4.25;;;22.10;99.90;;;;;;6216818;23;20211;-76
2021/07/27 09:30:34;;;;;;;8.98;5.10;;;22.00;99.90;;;;;;6217061;23;20259;-76
2021/07/27 09:33:03;;;;;;;7.60;5.60;;;22.20;99.90;;;;;;6216787;23;20180;-75
2021/07/27 09:35:30;;;;;;;8.40;4.45;;;22.30;99.90;;;;;;6217055;23;20646;-76
2021/07/27 09:38:18;;;;;;;5.63;4.13;;;22.40;99.90;;;;;;6216632;23;20203;-77
2021/07/27 09:40:50;;;;;;;5.82;4.60;;;22.60;99.90;;;;;;6211805;23;20662;-76
2021/07/27 09:43:18;;;;;;;8.07;5.07;;;22.60;99.90;;;;;;6216438;23;20212;-76
2021/07/27 09:45:46;;;;;;;7.55;4.90;;;22.80;99.90;;;;;;6217172;23;20180;-76
2021/07/27 09:48:16;;;;;;;7.15;4.53;;;23.10;99.90;;;;;;6216855;23;20269;-76
2021/07/27 09:50:45;;;;;;;8.75;4.60;;;23.30;99.90;;;;;;6216629;23;20176;-75
2021/07/27 09:53:12;;;;;;;6.28;4.25;;;23.20;99.90;;;;;;6216512;23;20184;-76
2021/07/27 09:55:39;;;;;;;9.43;4.18;;;23.30;99.90;;;;;;6216425;23;20180;-77
2021/07/27 09:58:06;;;;;;;6.00;4.00;;;23.50;99.90;;;;;;6216561;23;20196;-77
2021/07/27 10:00:34;;;;;;;7.22;4.32;;;23.80;99.90;;;;;;6216143;23;20188;-76
2021/07/27 10:03:03;;;;;;;6.40;4.10;;;24.10;99.90;;;;;;6216645;23;20204;-77
2021/07/27 10:05:33;;;;;;;6.88;3.78;;;24.60;99.90;;;;;;6216693;23;20183;-76
2021/07/27 10:08:00;;;;;;;7.57;3.90;;;25.10;99.90;;;;;;6216586;23;20203;-76
2021/07/27 10:10:36;;;;;;;6.60;4.03;;;25.50;99.90;;;;;;6215738;23;20655;-77
2021/07/27 10:13:07;;;;;;;7.25;3.95;;;25.70;99.90;;;;;;6216217;23;20184;-77
2021/07/27 10:15:40;;;;;;;4.47;3.15;;;26.10;99.90;;;;;;6216353;23;20210;-76
2021/07/27 10:18:07;;;;;;;7.28;3.80;;;26.30;99.90;;;;;;6215629;23;20555;-76
2021/07/27 10:20:35;;;;;;;7.07;3.45;;;26.30;99.90;;;;;;6215907;23;20184;-77
2021/07/27 10:23:20;;;;;;;8.18;3.95;;;25.80;99.90;;;;;;6215981;23;20205;-77
2021/07/27 10:25:59;;;;;;;4.95;3.38;;;25.60;99.90;;;;;;6216358;23;20211;-77
2021/07/27 10:28:27;;;;;;;5.60;3.60;;;25.70;99.90;;;;;;6216015;23;20196;-77
2021/07/27 10:31:05;;;;;;;5.45;3.30;;;25.80;99.90;;;;;;6216163;23;20176;-77
2021/07/27 10:33:32;;;;;;;7.18;3.47;;;25.80;99.90;;;;;;6216382;23;20186;-76
2021/07/27 10:36:01;;;;;;;4.13;2.80;;;25.80;99.90;;;;;;6215742;23;20177;-76
2021/07/27 10:38:39;;;;;;;3.75;2.83;;;25.70;99.90;;;;;;6215911;23;20311;-76
2021/07/27 10:41:19;;;;;;;4.70;3.10;;;25.50;99.90;;;;;;6216431;23;20256;-76
2021/07/27 10:43:47;;;;;;;3.78;2.97;;;25.30;99.90;;;;;;6215959;23;20740;-76
2021/07/27 10:46:13;;;;;;;4.80;3.00;;;25.40;99.90;;;;;;6215727;23;20176;-77
2021/07/27 10:48:41;;;;;;;4.05;3.03;;;25.50;99.90;;;;;;6216046;23;20519;-76
2021/07/27 10:51:10;;;;;;;9.15;3.03;;;25.80;99.90;;;;;;6215334;23;20184;-76
2021/07/27 10:53:37;;;;;;;5.28;2.90;;;25.90;99.90;;;;;;6215683;23;20635;-75
2021/07/27 10:56:07;;;;;;;4.50;2.47;;;25.50;99.90;;;;;;6216045;23;20177;-76
2021/07/27 10:58:35;;;;;;;5.72;2.95;;;25.30;99.90;;;;;;6216421;23;20201;-76
2021/07/27 11:01:09;;;;;;;4.93;3.33;;;25.20;99.90;;;;;;6216022;23;20176;-75
2021/07/27 11:03:36;;;;;;;5.10;3.10;;;25.00;99.90;;;;;;6215671;23;20518;-76
2021/07/27 11:06:04;;;;;;;4.70;3.30;;;25.20;99.90;;;;;;6215351;23;20264;-76
2021/07/27 11:08:32;;;;;;;7.20;3.08;;;25.20;99.90;;;;;;6214967;23;20192;-76
2021/07/27 11:11:10;;;;;;;6.32;3.33;;;25.20;99.90;;;;;;6215018;23;20183;-76
2021/07/27 11:13:38;;;;;;;4.47;3.28;;;25.20;99.90;;;;;;6215572;23;20255;-77
2021/07/27 11:16:05;;;;;;;4.70;2.95;;;25.00;99.90;;;;;;6215633;23;20227;-77
2021/07/27 11:18:32;;;;;;;5.85;3.40;;;25.10;99.90;;;;;;6215414;23;20219;-75
2021/07/27 11:21:00;;;;;;;6.10;3.70;;;25.10;99.90;;;;;;6215357;23;20184;-76
2021/07/27 11:23:35;;;;;;;4.63;3.13;;;25.00;99.90;;;;;;6215263;23;20611;-77
2021/07/27 11:26:03;;;;;;;5.05;3.38;;;24.80;99.90;;;;;;6215647;23;20238;-78
2021/07/27 11:28:35;;;;;;;6.10;3.40;;;24.90;99.90;;;;;;6215672;23;20201;-77
2021/07/27 11:31:02;;;;;;;4.85;3.00;;;24.90;99.90;;;;;;6215374;23;20177;-76
2021/07/27 11:33:29;;;;;;;5.43;3.53;;;25.10;99.90;;;;;;6215704;23;20195;-77
2021/07/27 11:35:58;;;;;;;5.05;3.10;;;25.00;99.90;;;;;;6215687;23;20183;-76
2021/07/27 11:38:28;;;;;;;5.93;2.90;;;25.00;99.90;;;;;;6215346;23;20197;-76
2021/07/27 11:41:06;;;;;;;5.18;3.35;;;25.30;99.90;;;;;;6216045;23;20180;-76
2021/07/27 11:43:34;;;;;;;3.92;2.97;;;25.80;99.90;;;;;;6215725;23;20204;-77
2021/07/27 11:46:08;;;;;;;4.32;2.83;;;26.20;99.90;;;;;;6215150;23;20183;-76
2021/07/27 11:48:36;;;;;;;6.30;3.33;;;25.90;99.90;;;;;;6215804;23;20248;-76
2021/07/27 11:51:03;;;;;;;5.65;3.15;;;25.50;99.90;;;;;;6215045;23;20184;-75
2021/07/27 11:53:32;;;;;;;6.28;3.78;;;25.20;99.90;;;;;;6215142;23;20184;-75
2021/07/27 11:56:09;;;;;;;6.25;4.05;;;25.00;99.90;;;;;;6215003;23;20185;-75
2021/07/27 11:58:37;;;;;;;7.00;3.85;;;24.60;99.90;;;;;;6214725;23;20202;-75
2021/07/27 12:01:04;;;;;;;7.07;4.43;;;24.20;99.90;;;;;;6215654;23;20176;-75
2021/07/27 12:03:31;;;;;;;6.57;3.97;;;24.00;99.90;;;;;;6215244;23;20543;-75
2021/07/27 12:05:57;;;;;;;6.32;3.80;;;23.90;99.90;;;;;;6215376;23;20654;-75
2021/07/27 12:08:25;;;;;;;6.40;4.00;;;23.90;99.90;;;;;;6215156;23;20690;-75
2021/07/27 12:10:52;;;;;;;5.65;3.78;;;24.20;99.90;;;;;;6215773;23;20177;-76
2021/07/27 12:13:18;;;;;;;7.78;4.85;;;24.50;99.90;;;;;;6215600;23;20180;-76
2021/07/27 12:15:47;;;;;;;6.65;3.75;;;24.80;99.90;;;;;;6215140;23;20457;-76
2021/07/27 12:18:14;;;;;;;8.23;4.10;;;25.00;99.90;;;;;;6215427;23;20207;-75
2021/07/27 12:20:41;;;;;;;7.60;3.55;;;25.10;99.90;;;;;;6214850;23;20635;-75
2021/07/27 12:23:08;;;;;;;6.53;3.97;;;25.30;99.90;;;;;;6214399;23;20543;-76
2021/07/27 12:25:35;;;;;;;6.10;3.90;;;25.30;99.90;;;;;;6215320;23;20638;-75
2021/07/27 12:28:02;;;;;;;7.00;4.05;;;25.10;99.90;;;;;;6215183;23;20523;-75
2021/07/27 12:30:29;;;;;;;5.95;4.50;;;25.00;99.90;;;;;;6215695;23;20182;-76
2021/07/27 12:32:58;;;;;;;6.60;4.18;;;24.90;99.90;;;;;;6215585;23;20176;-75
2021/07/27 12:35:24;;;;;;;5.78;3.97;;;24.80;99.90;;;;;;6215023;23;20184;-75
2021/07/27 12:37:51;;;;;;;6.95;4.13;;;24.70;99.90;;;;;;6215150;23;20197;-75
2021/07/27 12:40:18;;;;;;;7.50;3.90;;;24.60;99.90;;;;;;6215428;23;20184;-75
2021/07/27 12:42:45;;;;;;;6.18;3.60;;;24.30;99.90;;;;;;6217661;23;20177;-75
2021/07/27 12:45:12;;;;;;;7.43;3.90;;;23.80;99.90;;;;;;6217294;23;20212;-75
2021/07/27 12:47:39;;;;;;;6.07;3.50;;;23.50;99.90;;;;;;6217323;23;20223;-76
2021/07/27 12:50:08;;;;;;;6.03;3.60;;;23.20;99.90;;;;;;6217155;23;20176;-75
2021/07/27 12:52:35;;;;;;;5.38;3.22;;;23.10;99.90;;;;;;6217579;23;20176;-75
2021/07/27 12:55:02;;;;;;;5.28;3.00;;;23.20;99.90;;;;;;6217129;23;20181;-75
2021/07/27 12:57:29;;;;;;;4.38;2.80;;;23.50;99.90;;;;;;6216991;23;20595;-76
2021/07/27 12:59:56;;;;;;;4.15;2.90;;;23.80;99.90;;;;;;6216779;23;20177;-75
2021/07/27 13:02:23;;;;;;;5.32;2.67;;;24.00;99.90;;;;;;6216777;23;20499;-75
2021/07/27 13:04:51;;;;;;;3.78;2.60;;;24.20;99.90;;;;;;6216869;23;20227;-75
2021/07/27 13:07:19;;;;;;;4.80;3.05;;;24.30;99.90;;;;;;6216823;23;20177;-76